^^
Datos históricos de la estación: Murcia-Puente Tocinos
Diario Informe para Agosto 7, 2019 Unidades:  Métrico    Inglés   Ambas
Diario Semanal Mensual Anual Configurable
  Máximo: Mínimo: Media:
Temperatura: 39.7 °C 25.0 °C 30.6 °C
Punto de rocio: 23.0 °C 8.2 °C 17.5 °C
Humedad: 85% 15% 52%
Velocidad viento: 19.0km/h 0.0km/h 7.8km/h
Racha viento: 33.3km/h - -
Viento- - SSE
Presión: 1010.5 hPa 1007.0 hPa -
Precipitación: 0.0 mm    
Historical Graphs
 
 
Tabla de datos para Agosto 7, 2019
Hora Temperatura Punto de rocio Presión Viento Velocidad viento Racha viento Humedad Intensidad lluvia(por hora) Nubes
00:00 27.5 °C 21.8 °C 1008.3 hPa NNE 6.4 km/h 13.0 km/h 71% 0.0 mm CLR
00:05 27.4 °C 21.7 °C 1008.6 hPa North 6.4 km/h 13.0 km/h 71% 0.0 mm CLR
00:10 27.4 °C 21.4 °C 1008.6 hPa NNE 8.4 km/h 11.1 km/h 70% 0.0 mm CLR
00:15 27.4 °C 21.7 °C 1008.6 hPa ENE 8.4 km/h 9.3 km/h 71% 0.0 mm CLR
00:20 27.3 °C 21.8 °C 1008.7 hPa NE 7.6 km/h 13.0 km/h 72% 0.0 mm CLR
00:25 27.2 °C 21.9 °C 1008.7 hPa NNW 7.6 km/h 13.0 km/h 73% 0.0 mm CLR
00:30 27.2 °C 21.9 °C 1008.7 hPa North 8.7 km/h 11.1 km/h 73% 0.0 mm CLR
00:35 27.1 °C 22.1 °C 1008.7 hPa NNE 8.7 km/h 11.1 km/h 74% 0.0 mm CLR
00:40 27.1 °C 22.1 °C 1008.7 hPa NNE 6.4 km/h 11.1 km/h 74% 0.0 mm CLR
00:45 26.9 °C 22.1 °C 1008.7 hPa North 6.4 km/h 13.0 km/h 75% 0.0 mm CLR
00:50 26.8 °C 22.2 °C 1008.7 hPa North 8.7 km/h 13.0 km/h 76% 0.0 mm CLR
00:55 26.7 °C 22.1 °C 1008.7 hPa NNE 8.7 km/h 14.8 km/h 76% 0.0 mm CLR
01:00 26.7 °C 22.3 °C 1008.7 hPa North 8.7 km/h 11.1 km/h 77% 0.0 mm CLR
01:05 26.6 °C 22.2 °C 1008.3 hPa NNE 8.7 km/h 16.7 km/h 77% 0.0 mm CLR
01:10 26.6 °C 22.4 °C 1008.3 hPa NE 8.4 km/h 11.1 km/h 78% 0.0 mm CLR
01:15 26.6 °C 22.4 °C 1008.3 hPa NE 8.4 km/h 7.4 km/h 78% 0.0 mm CLR
01:20 26.6 °C 22.4 °C 1008.5 hPa ENE 5.8 km/h 9.3 km/h 78% 0.0 mm CLR
01:25 26.6 °C 22.7 °C 1008.5 hPa NNW 5.8 km/h 7.4 km/h 79% 0.0 mm CLR
01:30 26.5 °C 22.6 °C 1008.5 hPa ENE 5.0 km/h 9.3 km/h 79% 0.0 mm CLR
01:35 26.5 °C 22.6 °C 1008.5 hPa NE 5.0 km/h 3.7 km/h 79% 0.0 mm CLR
01:40 26.4 °C 22.7 °C 1008.5 hPa NNE 3.9 km/h 7.4 km/h 80% 0.0 mm CLR
01:45 26.3 °C 22.6 °C 1008.5 hPa NW 3.9 km/h   80% 0.0 mm CLR
01:50 26.3 °C 22.6 °C 1008.2 hPa NE 3.9 km/h 9.5 km/h 80% 0.0 mm CLR
01:55 26.2 °C 22.7 °C 1008.2 hPa NNE 3.2 km/h 7.4 km/h 81% 0.0 mm CLR
02:00 26.2 °C 22.7 °C 1008.2 hPa NE 5.0 km/h 7.4 km/h 81% 0.0 mm CLR
02:05 26.1 °C 22.6 °C 1008.2 hPa NW 5.0 km/h 3.7 km/h 81% 0.0 mm CLR
02:10 26.1 °C 22.8 °C 1008.2 hPa NW 5.0 km/h 3.7 km/h 82% 0.0 mm CLR
02:15 26.1 °C 22.8 °C 1008.2 hPa NE 2.3 km/h 5.6 km/h 82% 0.0 mm CLR
02:20 26.1 °C 22.8 °C 1007.8 hPa NNE 3.2 km/h 5.6 km/h 82% 0.0 mm CLR
02:25 26.1 °C 22.8 °C 1007.8 hPa NNW 3.2 km/h 5.6 km/h 82% 0.0 mm CLR
02:30 26.1 °C 22.8 °C 1007.8 hPa North 3.2 km/h 3.7 km/h 82% 0.0 mm CLR
02:35 26.1 °C 22.8 °C 1007.9 hPa NE 3.2 km/h 2.9 km/h 82% 0.0 mm CLR
02:40 26.1 °C 22.8 °C 1007.9 hPa NW 2.3 km/h 3.7 km/h 82% 0.0 mm CLR
02:45 26.1 °C 23.0 °C 1007.9 hPa NW 2.3 km/h 5.8 km/h 83% 0.0 mm CLR
02:50 26.1 °C 23.0 °C 1007.8 hPa NW 2.9 km/h 4.7 km/h 83% 0.0 mm CLR
02:55 26.1 °C 23.0 °C 1007.8 hPa NW 2.9 km/h 3.9 km/h 83% 0.0 mm CLR
03:00 26.1 °C 23.0 °C 1007.8 hPa NW 3.2 km/h 5.6 km/h 83% 0.0 mm CLR
03:05 26.0 °C 22.9 °C 1007.6 hPa NW 3.2 km/h 5.8 km/h 83% 0.0 mm CLR
03:10 26.0 °C 22.9 °C 1007.6 hPa NW 3.2 km/h 3.9 km/h 83% 0.0 mm CLR
03:15 26.0 °C 22.9 °C 1007.6 hPa NW 3.2 km/h   83% 0.0 mm CLR
03:20 26.0 °C 22.9 °C 1007.5 hPa NW 2.3 km/h 3.7 km/h 83% 0.0 mm CLR
03:25 26.0 °C 22.9 °C 1007.5 hPa NW 2.3 km/h   83% 0.0 mm CLR
03:30 26.0 °C 22.9 °C 1007.5 hPa Calm     83% 0.0 mm CLR
03:35 26.0 °C 22.9 °C 1007.5 hPa Calm     83% 0.0 mm CLR
03:40 25.9 °C 22.8 °C 1007.5 hPa ESE 2.9 km/h 9.3 km/h 83% 0.0 mm CLR
03:45 25.8 °C 22.7 °C 1007.5 hPa SE 2.9 km/h 5.6 km/h 83% 0.0 mm CLR
03:50 25.8 °C 22.7 °C 1007.4 hPa SE 3.9 km/h 3.7 km/h 83% 0.0 mm CLR
03:55 25.8 °C 22.7 °C 1007.4 hPa SE 3.9 km/h   83% 0.0 mm CLR
04:00 25.8 °C 22.7 °C 1007.4 hPa Calm   9.5 km/h 83% 0.0 mm CLR
04:05 25.8 °C 22.5 °C 1007.6 hPa Calm   5.6 km/h 82% 0.0 mm CLR
04:10 25.8 °C 22.1 °C 1007.6 hPa East 3.2 km/h 4.7 km/h 80% 0.0 mm CLR
04:15 25.8 °C 22.1 °C 1007.6 hPa East 3.2 km/h 5.6 km/h 80% 0.0 mm CLR
04:20 25.8 °C 22.1 °C 1007.6 hPa East 3.2 km/h 3.9 km/h 80% 0.0 mm CLR
04:25 25.8 °C 22.1 °C 1007.6 hPa East 3.2 km/h   80% 0.0 mm CLR
04:30 25.8 °C 22.3 °C 1007.6 hPa NNW 2.3 km/h 3.7 km/h 81% 0.0 mm CLR
04:35 25.8 °C 22.3 °C 1007.5 hPa NNW 2.3 km/h 3.7 km/h 81% 0.0 mm CLR
04:40 25.7 °C 22.2 °C 1007.5 hPa NNW 2.3 km/h 3.2 km/h 81% 0.0 mm CLR
04:45 25.7 °C 22.4 °C 1007.5 hPa NNE 2.3 km/h 3.7 km/h 82% 0.0 mm CLR
04:50 25.7 °C 22.6 °C 1007.6 hPa NNE 2.3 km/h   83% 0.0 mm CLR
04:55 25.7 °C 22.6 °C 1007.6 hPa NNE 2.3 km/h   83% 0.0 mm CLR
05:00 25.7 °C 22.8 °C 1007.6 hPa Calm     84% 0.0 mm CLR
05:05 25.7 °C 22.8 °C 1007.6 hPa Calm     84% 0.0 mm CLR
05:10 25.7 °C 22.8 °C 1007.6 hPa Calm   3.7 km/h 84% 0.0 mm CLR
05:15 25.6 °C 22.7 °C 1007.6 hPa Calm   4.7 km/h 84% 0.0 mm CLR
05:20 25.6 °C 22.7 °C 1007.6 hPa Calm   5.6 km/h 84% 0.0 mm CLR
05:25 25.6 °C 22.7 °C 1007.6 hPa Calm     84% 0.0 mm CLR
05:30 25.5 °C 22.6 °C 1007.6 hPa Calm     84% 0.0 mm CLR
05:35 25.5 °C 22.8 °C 1007.6 hPa Calm     85% 0.0 mm CLR
05:40 25.4 °C 22.7 °C 1007.6 hPa Calm     85% 0.0 mm CLR
05:45 25.4 °C 22.7 °C 1007.6 hPa Calm     85% 0.0 mm CLR
05:50 25.4 °C 22.3 °C 1007.6 hPa Calm     83% 0.0 mm CLR
05:55 25.3 °C 22.2 °C 1007.6 hPa Calm     83% 0.0 mm CLR
06:00 25.3 °C 21.8 °C 1007.6 hPa Calm   7.4 km/h 81% 0.0 mm CLR
06:05 25.3 °C 21.6 °C 1007.6 hPa Calm   1.9 km/h 80% 0.0 mm CLR
06:10 25.2 °C 21.1 °C 1007.6 hPa SSE 2.9 km/h 7.6 km/h 78% 0.0 mm CLR
06:15 25.2 °C 20.7 °C 1007.6 hPa South 2.9 km/h 7.4 km/h 76% 0.0 mm CLR
06:20 25.3 °C 20.8 °C 1007.6 hPa SSW 5.8 km/h 11.1 km/h 76% 0.0 mm CLR
06:25 25.3 °C 20.8 °C 1007.6 hPa SSW 5.8 km/h 11.1 km/h 76% 0.0 mm CLR
06:30 25.2 °C 20.7 °C 1007.6 hPa SSW 7.6 km/h 11.1 km/h 76% 0.0 mm CLR
06:35 25.2 °C 20.7 °C 1007.8 hPa SSW 7.6 km/h 11.1 km/h 76% 0.0 mm CLR
06:40 25.2 °C 20.7 °C 1007.8 hPa SSW 6.9 km/h 13.0 km/h 76% 0.0 mm CLR
06:45 25.2 °C 20.4 °C 1007.8 hPa WSW 6.9 km/h 10.3 km/h 75% 0.0 mm CLR
06:50 25.2 °C 20.4 °C 1007.8 hPa SW 6.9 km/h 13.0 km/h 75% 0.0 mm CLR
06:55 25.2 °C 20.4 °C 1007.8 hPa SW 6.9 km/h 11.1 km/h 75% 0.0 mm CLR
07:00 25.2 °C 20.4 °C 1007.8 hPa SW 7.6 km/h 10.3 km/h 75% 0.0 mm CLR
07:05 25.2 °C 20.4 °C 1008.0 hPa WSW 7.6 km/h 13.0 km/h 75% 0.0 mm CLR
07:10 25.2 °C 20.7 °C 1008.0 hPa WSW 7.6 km/h 10.3 km/h 76% 0.0 mm CLR
07:15 25.1 °C 20.8 °C 1008.0 hPa WSW 7.6 km/h 11.1 km/h 77% 0.0 mm CLR
07:20 25.1 °C 20.8 °C 1008.2 hPa West 6.9 km/h 10.0 km/h 77% 0.0 mm CLR
07:25 25.1 °C 21.0 °C 1008.2 hPa SSW 6.9 km/h 7.4 km/h 78% 0.0 mm CLR
07:30 25.1 °C 21.0 °C 1008.2 hPa SSW 6.9 km/h 10.0 km/h 78% 0.0 mm CLR
07:35 25.1 °C 20.8 °C 1008.1 hPa SW 6.9 km/h 8.4 km/h 77% 0.0 mm CLR
07:40 25.1 °C 20.6 °C 1008.1 hPa SSW 7.6 km/h 11.1 km/h 76% 0.0 mm CLR
07:45 25.0 °C 20.3 °C 1008.1 hPa SSW 7.6 km/h 11.1 km/h 75% 0.0 mm CLR
07:50 25.0 °C 20.3 °C 1008.1 hPa South 6.9 km/h 11.1 km/h 75% 0.0 mm CLR
07:55 25.1 °C 20.3 °C 1008.1 hPa WSW 6.9 km/h 7.6 km/h 75% 0.0 mm CLR
08:00 25.1 °C 20.3 °C 1008.1 hPa West 6.9 km/h 7.4 km/h 75% 0.0 mm CLR
08:05 25.2 °C 20.7 °C 1008.0 hPa SSW 6.9 km/h 8.4 km/h 76% 0.0 mm CLR
08:10 25.3 °C 20.6 °C 1008.0 hPa SW 5.8 km/h 9.3 km/h 75% 0.0 mm CLR
08:15 25.3 °C 20.3 °C 1008.0 hPa WSW 5.8 km/h 11.1 km/h 74% 0.0 mm CLR
08:20 25.4 °C 20.0 °C 1008.3 hPa SW 8.4 km/h 13.0 km/h 72% 0.0 mm CLR
08:25 25.4 °C 19.8 °C 1008.3 hPa WSW 8.4 km/h 9.3 km/h 71% 0.0 mm CLR
08:30 25.5 °C 19.8 °C 1008.3 hPa WSW 6.9 km/h 9.5 km/h 71% 0.0 mm CLR
08:35 25.6 °C 19.7 °C 1008.2 hPa WNW 6.9 km/h 5.8 km/h 70% 0.0 mm CLR
08:40 25.7 °C 19.8 °C 1008.2 hPa WNW 5.8 km/h 7.4 km/h 70% 0.0 mm CLR
08:45 25.7 °C 19.6 °C 1008.2 hPa WSW 5.8 km/h 7.4 km/h 69% 0.0 mm CLR
08:50 25.8 °C 19.7 °C 1008.2 hPa WNW 5.0 km/h 7.4 km/h 69% 0.0 mm CLR
08:55 25.9 °C 19.8 °C 1008.2 hPa West 5.0 km/h 7.4 km/h 69% 0.0 mm CLR
09:00 25.9 °C 19.8 °C 1008.2 hPa West 5.8 km/h 9.3 km/h 69% 0.0 mm CLR
09:05 26.0 °C 19.9 °C 1008.4 hPa West 5.8 km/h 7.6 km/h 69% 0.0 mm CLR
09:10 26.1 °C 19.7 °C 1008.4 hPa WNW 6.4 km/h 8.4 km/h 68% 0.0 mm CLR
09:15 26.3 °C 19.9 °C 1008.4 hPa NW 6.4 km/h 7.4 km/h 68% 0.0 mm CLR
09:20 26.4 °C 19.8 °C 1008.6 hPa WSW 5.0 km/h 7.4 km/h 67% 0.0 mm CLR
09:25 26.7 °C 20.1 °C 1008.6 hPa WSW 5.0 km/h 3.7 km/h 67% 0.0 mm CLR
09:30 26.9 °C 20.0 °C 1008.6 hPa NW 3.2 km/h 9.3 km/h 66% 0.0 mm CLR
09:35 27.1 °C 20.2 °C 1008.7 hPa WSW 3.2 km/h 7.4 km/h 66% 0.0 mm CLR
09:40 27.3 °C 20.4 °C 1008.7 hPa WNW 4.7 km/h 5.6 km/h 66% 0.0 mm CLR
09:45 27.6 °C 20.2 °C 1008.7 hPa WSW 4.7 km/h 7.4 km/h 64% 0.0 mm CLR
09:50 27.8 °C 20.4 °C 1008.8 hPa WNW 4.7 km/h 7.4 km/h 64% 0.0 mm CLR
09:55 27.9 °C 20.2 °C 1008.8 hPa West 4.7 km/h 7.4 km/h 63% 0.0 mm CLR
10:00 28.3 °C 19.5 °C 1008.8 hPa WSW 5.0 km/h 9.3 km/h 59% 0.0 mm CLR
10:05 28.6 °C 19.2 °C 1008.9 hPa South 5.0 km/h 5.6 km/h 57% 0.0 mm CLR
10:10 28.9 °C 18.3 °C 1008.9 hPa SSW 5.8 km/h 7.4 km/h 53% 0.0 mm CLR
10:15 29.2 °C 18.9 °C 1008.9 hPa SW 5.8 km/h 9.3 km/h 54% 0.0 mm CLR
10:20 29.6 °C 18.4 °C 1008.9 hPa South 5.8 km/h 11.9 km/h 51% 0.0 mm CLR
10:25 29.8 °C 17.9 °C 1008.9 hPa SSW 5.8 km/h 13.0 km/h 49% 0.0 mm CLR
10:30 29.9 °C 17.7 °C 1008.9 hPa SSW 9.5 km/h 13.0 km/h 48% 0.0 mm CLR
10:35 30.1 °C 16.5 °C 1008.9 hPa SSW 9.5 km/h 13.0 km/h 44% 0.0 mm CLR
10:40 30.2 °C 16.2 °C 1008.9 hPa SW 8.7 km/h 11.1 km/h 43% 0.0 mm CLR
10:45 30.3 °C 16.7 °C 1008.9 hPa SSW 8.7 km/h 7.4 km/h 44% 0.0 mm CLR
10:50 30.6 °C 16.6 °C 1009.1 hPa SSW 6.9 km/h 9.3 km/h 43% 0.0 mm CLR
10:55 30.8 °C 16.4 °C 1009.1 hPa SSW 6.9 km/h 11.1 km/h 42% 0.0 mm CLR
11:00 31.1 °C 15.5 °C 1009.1 hPa WSW 6.9 km/h 13.7 km/h 39% 0.0 mm CLR
11:05 31.2 °C 15.6 °C 1009.2 hPa SSW 6.9 km/h 10.3 km/h 39% 0.0 mm CLR
11:10 31.3 °C 15.3 °C 1009.2 hPa SSW 6.4 km/h 11.9 km/h 38% 0.0 mm CLR
11:15 31.7 °C 15.2 °C 1009.2 hPa South 6.4 km/h 9.5 km/h 37% 0.0 mm CLR
11:20 31.9 °C 15.8 °C 1009.2 hPa SSW 6.4 km/h 9.3 km/h 38% 0.0 mm CLR
11:25 32.2 °C 14.8 °C 1009.2 hPa SSW 6.4 km/h 7.4 km/h 35% 0.0 mm CLR
11:30 32.5 °C 13.7 °C 1009.2 hPa WSW 6.4 km/h 14.8 km/h 32% 0.0 mm CLR
11:35 32.7 °C 14.3 °C 1009.0 hPa SW 6.4 km/h 11.1 km/h 33% 0.0 mm CLR
11:40 32.9 °C 13.6 °C 1009.0 hPa SSW 7.6 km/h 11.9 km/h 31% 0.0 mm CLR
11:45 33.1 °C 13.7 °C 1009.0 hPa SW 7.6 km/h 11.1 km/h 31% 0.0 mm CLR
11:50 33.4 °C 13.4 °C 1009.1 hPa South 8.7 km/h 11.1 km/h 30% 0.0 mm CLR
11:55 33.7 °C 13.2 °C 1009.1 hPa South 8.7 km/h 7.4 km/h 29% 0.0 mm CLR
12:00 34.1 °C 13.6 °C 1009.1 hPa SSW 6.9 km/h 9.3 km/h 29% 0.0 mm CLR
12:05 34.4 °C 13.8 °C 1009.0 hPa WSW 6.9 km/h 12.2 km/h 29% 0.0 mm CLR
12:10 34.7 °C 13.5 °C 1009.0 hPa SSW 6.4 km/h 9.3 km/h 28% 0.0 mm CLR
12:15 34.7 °C 12.9 °C 1009.0 hPa WSW 6.4 km/h 13.0 km/h 27% 0.0 mm CLR
12:20 34.8 °C 13.1 °C 1008.9 hPa WSW 8.4 km/h 9.3 km/h 27% 0.0 mm CLR
12:25 34.9 °C 12.6 °C 1008.9 hPa WSW 8.4 km/h 11.1 km/h 26% 0.0 mm CLR
12:30 35.1 °C 12.1 °C 1008.9 hPa West 5.8 km/h 11.9 km/h 25% 0.0 mm CLR
12:35 35.3 °C 11.0 °C 1008.8 hPa NW 5.8 km/h 14.8 km/h 23% 0.0 mm CLR
12:40 35.5 °C 10.5 °C 1008.8 hPa NW 9.5 km/h 11.9 km/h 22% 0.0 mm CLR
12:45 35.6 °C 10.6 °C 1008.8 hPa WNW 9.5 km/h 14.8 km/h 22% 0.0 mm CLR
12:50 35.6 °C 9.9 °C 1008.6 hPa WNW 8.7 km/h 13.0 km/h 21% 0.0 mm CLR
12:55 35.7 °C 10.0 °C 1008.6 hPa NW 8.7 km/h 9.3 km/h 21% 0.0 mm CLR
13:00 35.9 °C 10.2 °C 1008.6 hPa West 5.8 km/h 1.9 km/h 21% 0.0 mm CLR
13:05 36.3 °C 10.5 °C 1008.5 hPa North 5.8 km/h 13.0 km/h 21% 0.0 mm CLR
13:10 36.6 °C 10.0 °C 1008.5 hPa NW 5.0 km/h 14.8 km/h 20% 0.0 mm CLR
13:15 36.4 °C 9.8 °C 1008.5 hPa WNW 5.0 km/h 11.1 km/h 20% 0.0 mm CLR
13:20 36.5 °C 9.9 °C 1008.5 hPa West 8.7 km/h 13.0 km/h 20% 0.0 mm CLR
13:25 36.6 °C 10.0 °C 1008.5 hPa WNW 8.7 km/h 16.7 km/h 20% 0.0 mm CLR
13:30 36.8 °C 9.4 °C 1008.5 hPa WNW 10.0 km/h 16.7 km/h 19% 0.0 mm CLR
13:35 36.9 °C 9.5 °C 1008.4 hPa SW 10.0 km/h 8.7 km/h 19% 0.0 mm CLR
13:40 37.1 °C 9.7 °C 1008.4 hPa WNW 7.6 km/h 14.8 km/h 19% 0.0 mm CLR
13:45 37.2 °C 9.7 °C 1008.4 hPa West 7.6 km/h 9.3 km/h 19% 0.0 mm CLR
13:50 37.6 °C 10.1 °C 1008.2 hPa NNE 8.4 km/h 11.1 km/h 19% 0.0 mm CLR
13:55 37.7 °C 10.1 °C 1008.2 hPa NW 8.4 km/h 5.6 km/h 19% 0.0 mm CLR
14:00 37.8 °C 9.4 °C 1008.2 hPa NNE 5.8 km/h 7.4 km/h 18% 0.0 mm CLR
14:05 38.1 °C 10.4 °C 1008.2 hPa WNW 5.8 km/h 3.7 km/h 19% 0.0 mm CLR
14:10 38.5 °C 9.9 °C 1008.2 hPa WNW 2.9 km/h 5.6 km/h 18% 0.0 mm CLR
14:15 38.8 °C 9.3 °C 1008.2 hPa South 2.9 km/h 12.2 km/h 17% 0.0 mm CLR
14:20 38.7 °C 9.3 °C 1008.2 hPa WSW 5.8 km/h 9.3 km/h 17% 0.0 mm CLR
14:25 38.6 °C 9.2 °C 1008.2 hPa SW 5.8 km/h 9.3 km/h 17% 0.0 mm CLR
14:30 38.7 °C 9.3 °C 1008.2 hPa West 4.7 km/h 5.6 km/h 17% 0.0 mm CLR
14:35 38.8 °C 9.3 °C 1008.1 hPa West 4.7 km/h 7.4 km/h 17% 0.0 mm CLR
14:40 38.8 °C 10.2 °C 1008.1 hPa ENE 4.7 km/h 7.4 km/h 18% 0.0 mm CLR
14:45 38.8 °C 9.3 °C 1008.1 hPa ENE 4.7 km/h 11.1 km/h 17% 0.0 mm CLR
14:50 38.6 °C 10.1 °C 1008.0 hPa ENE 6.4 km/h 7.4 km/h 18% 0.0 mm CLR
14:55 38.6 °C 9.2 °C 1008.0 hPa NE 6.4 km/h 9.3 km/h 17% 0.0 mm CLR
15:00 38.5 °C 9.1 °C 1008.0 hPa NE 5.0 km/h 11.9 km/h 17% 0.0 mm CLR
15:05 38.4 °C 9.1 °C 1007.9 hPa NNE 5.0 km/h 9.5 km/h 17% 0.0 mm CLR
15:10 38.6 °C 9.2 °C 1007.9 hPa NE 5.8 km/h 7.6 km/h 17% 0.0 mm CLR
15:15 38.7 °C 9.3 °C 1007.9 hPa NNW 5.8 km/h 7.4 km/h 17% 0.0 mm CLR
15:20 38.9 °C 8.6 °C 1007.7 hPa West 4.7 km/h 7.4 km/h 16% 0.0 mm CLR
15:25 39.2 °C 8.8 °C 1007.7 hPa SE 4.7 km/h 5.6 km/h 16% 0.0 mm CLR
15:30 39.4 °C 8.9 °C 1007.7 hPa SW 3.2 km/h 6.4 km/h 16% 0.0 mm CLR
15:35 39.6 °C 9.1 °C 1007.6 hPa WNW 3.2 km/h 7.4 km/h 16% 0.0 mm CLR
15:40 39.7 °C 8.2 °C 1007.6 hPa NW 3.9 km/h 9.3 km/h 15% 0.0 mm CLR
15:45 39.5 °C 9.0 °C 1007.6 hPa North 3.9 km/h 3.9 km/h 16% 0.0 mm CLR
15:50 39.6 °C 9.1 °C 1007.5 hPa ENE 3.9 km/h 6.4 km/h 16% 0.0 mm CLR
15:55 39.6 °C 9.1 °C 1007.5 hPa SE 3.9 km/h 7.4 km/h 16% 0.0 mm CLR
16:00 39.5 °C 9.9 °C 1007.5 hPa NE 4.7 km/h 5.8 km/h 17% 0.0 mm CLR
16:05 39.4 °C 8.9 °C 1007.3 hPa NE 4.7 km/h 14.8 km/h 16% 0.0 mm CLR
16:10 39.1 °C 15.5 °C 1007.3 hPa ESE 7.6 km/h 20.4 km/h 25% 0.0 mm CLR
16:15 38.4 °C 17.2 °C 1007.3 hPa ESE 7.6 km/h 20.1 km/h 29% 0.0 mm CLR
16:20 37.9 °C 17.3 °C 1007.2 hPa SE 12.2 km/h 18.5 km/h 30% 0.0 mm CLR
16:25 37.7 °C 17.2 °C 1007.2 hPa ESE 12.2 km/h 20.4 km/h 30% 0.0 mm CLR
16:30 37.7 °C 17.7 °C 1007.2 hPa ESE 13.0 km/h 20.4 km/h 31% 0.0 mm CLR
16:35 37.4 °C 17.4 °C 1007.3 hPa SSE 13.0 km/h 24.1 km/h 31% 0.0 mm CLR
16:40 37.3 °C 17.8 °C 1007.3 hPa ESE 14.0 km/h 13.0 km/h 32% 0.0 mm CLR
16:45 37.3 °C 17.8 °C 1007.3 hPa ESE 14.0 km/h 13.0 km/h 32% 0.0 mm CLR
16:50 37.2 °C 17.7 °C 1007.2 hPa ESE 11.9 km/h 22.2 km/h 32% 0.0 mm CLR
16:55 37.2 °C 17.7 °C 1007.2 hPa ESE 11.9 km/h 24.1 km/h 32% 0.0 mm CLR
17:00 37.3 °C 17.8 °C 1007.2 hPa SSE 13.7 km/h 20.4 km/h 32% 0.0 mm CLR
17:05 37.3 °C 17.3 °C 1007.0 hPa SE 13.7 km/h 25.9 km/h 31% 0.0 mm CLR
17:10 37.3 °C 17.3 °C 1007.0 hPa ESE 17.2 km/h 24.5 km/h 31% 0.0 mm CLR
17:15 37.2 °C 17.2 °C 1007.0 hPa ESE 17.2 km/h 24.1 km/h 31% 0.0 mm CLR
17:20 37.1 °C 17.2 °C 1007.2 hPa ESE 16.4 km/h 25.9 km/h 31% 0.0 mm CLR
17:25 36.9 °C 17.0 °C 1007.2 hPa ESE 16.4 km/h 20.4 km/h 31% 0.0 mm CLR
17:30 36.9 °C 16.4 °C 1007.2 hPa ESE 16.1 km/h 24.1 km/h 30% 0.0 mm CLR
17:35 36.9 °C 15.9 °C 1007.0 hPa East 16.1 km/h 20.4 km/h 29% 0.0 mm CLR
17:40 36.9 °C 15.9 °C 1007.0 hPa ESE 15.6 km/h 24.1 km/h 29% 0.0 mm CLR
17:45 36.9 °C 16.4 °C 1007.0 hPa ESE 15.6 km/h 18.3 km/h 30% 0.0 mm CLR
17:50 37.0 °C 16.0 °C 1007.0 hPa SE 14.8 km/h 20.9 km/h 29% 0.0 mm CLR
17:55 37.1 °C 15.6 °C 1007.0 hPa SSE 14.8 km/h 29.6 km/h 28% 0.0 mm CLR
18:00 37.0 °C 15.5 °C 1007.0 hPa SSE 16.4 km/h 20.4 km/h 28% 0.0 mm CLR
18:05 36.9 °C 15.9 °C 1007.2 hPa ESE 16.4 km/h 16.7 km/h 29% 0.0 mm CLR
18:10 36.8 °C 15.8 °C 1007.2 hPa East 13.7 km/h 22.2 km/h 29% 0.0 mm CLR
18:15 36.8 °C 16.4 °C 1007.2 hPa NE 13.7 km/h 14.8 km/h 30% 0.0 mm CLR
18:20 36.2 °C 16.9 °C 1007.3 hPa NE 11.9 km/h 16.4 km/h 32% 0.0 mm CLR
18:25 35.4 °C 17.2 °C 1007.3 hPa NE 11.9 km/h 24.1 km/h 34% 0.0 mm CLR
18:30 34.8 °C 16.6 °C 1007.3 hPa NE 14.0 km/h 20.4 km/h 34% 0.0 mm CLR
18:35 34.3 °C 16.2 °C 1007.3 hPa NE 14.0 km/h 33.3 km/h 34% 0.0 mm CLR
18:40 33.9 °C 16.7 °C 1007.3 hPa NE 19.0 km/h 29.6 km/h 36% 0.0 mm CLR
18:45 33.8 °C 17.1 °C 1007.3 hPa NE 19.0 km/h 18.5 km/h 37% 0.0 mm CLR
18:50 33.6 °C 16.9 °C 1007.4 hPa NNE 15.6 km/h 22.2 km/h 37% 0.0 mm CLR
18:55 33.3 °C 17.1 °C 1007.4 hPa NE 15.6 km/h 24.1 km/h 38% 0.0 mm CLR
19:00 33.2 °C 16.9 °C 1007.4 hPa NNE 18.0 km/h 18.5 km/h 38% 0.0 mm CLR
19:05 33.2 °C 17.4 °C 1007.4 hPa NE 18.0 km/h 22.2 km/h 39% 0.0 mm CLR
19:10 33.1 °C 17.3 °C 1007.4 hPa NE 16.4 km/h 22.2 km/h 39% 0.0 mm CLR
19:15 33.2 °C 17.4 °C 1007.4 hPa NNE 16.4 km/h 27.8 km/h 39% 0.0 mm CLR
19:20 33.2 °C 17.4 °C 1007.5 hPa North 15.6 km/h 22.2 km/h 39% 0.0 mm CLR
19:25 33.1 °C 16.9 °C 1007.5 hPa NE 15.6 km/h 22.5 km/h 38% 0.0 mm CLR
19:30 33.1 °C 17.3 °C 1007.5 hPa NE 16.1 km/h 25.9 km/h 39% 0.0 mm CLR
19:35 33.0 °C 16.8 °C 1007.5 hPa NNE 16.1 km/h 25.9 km/h 38% 0.0 mm CLR
19:40 32.9 °C 16.7 °C 1007.5 hPa NNE 16.1 km/h 24.1 km/h 38% 0.0 mm CLR
19:45 32.7 °C 16.5 °C 1007.5 hPa NNE 16.1 km/h 29.6 km/h 38% 0.0 mm CLR
19:50 32.3 °C 16.6 °C 1007.6 hPa NNE 18.3 km/h 29.6 km/h 39% 0.0 mm CLR
19:55 32.2 °C 17.3 °C 1007.6 hPa NE 18.3 km/h 20.4 km/h 41% 0.0 mm CLR
20:00 32.1 °C 17.6 °C 1007.6 hPa ENE 18.0 km/h 27.8 km/h 42% 0.0 mm CLR
20:05 31.9 °C 17.8 °C 1007.8 hPa NNE 18.0 km/h 20.4 km/h 43% 0.0 mm CLR
20:10 31.8 °C 17.3 °C 1007.8 hPa NNE 17.2 km/h 27.8 km/h 42% 0.0 mm CLR
20:15 31.7 °C 17.2 °C 1007.8 hPa NE 17.2 km/h 24.1 km/h 42% 0.0 mm CLR
20:20 31.6 °C 16.7 °C 1007.9 hPa ENE 17.2 km/h 25.9 km/h 41% 0.0 mm CLR
20:25 31.4 °C 16.6 °C 1007.9 hPa NNE 17.2 km/h 24.1 km/h 41% 0.0 mm CLR
20:30 31.3 °C 16.5 °C 1007.9 hPa North 17.2 km/h 25.9 km/h 41% 0.0 mm CLR
20:35 31.2 °C 16.4 °C 1008.1 hPa NNE 17.2 km/h 22.2 km/h 41% 0.0 mm CLR
20:40 31.2 °C 16.4 °C 1008.1 hPa NE 16.4 km/h 22.2 km/h 41% 0.0 mm CLR
20:45 31.1 °C 16.3 °C 1008.1 hPa NE 16.4 km/h 22.2 km/h 41% 0.0 mm CLR
20:50 31.0 °C 16.2 °C 1008.4 hPa NNE 16.1 km/h 18.5 km/h 41% 0.0 mm CLR
20:55 30.9 °C 15.7 °C 1008.4 hPa NE 16.1 km/h 16.7 km/h 40% 0.0 mm CLR
21:00 30.8 °C 15.7 °C 1008.4 hPa NNE 13.0 km/h 18.5 km/h 40% 0.0 mm CLR
21:05 30.7 °C 15.9 °C 1008.6 hPa NE 13.0 km/h 20.4 km/h 41% 0.0 mm CLR
21:10 30.7 °C 15.9 °C 1008.6 hPa North 13.7 km/h 14.8 km/h 41% 0.0 mm CLR
21:15 30.6 °C 15.8 °C 1008.6 hPa NE 13.7 km/h 20.4 km/h 41% 0.0 mm CLR
21:20 30.5 °C 16.1 °C 1008.7 hPa NNE 12.2 km/h 13.0 km/h 42% 0.0 mm CLR
21:25 30.4 °C 16.1 °C 1008.7 hPa ENE 12.2 km/h 16.7 km/h 42% 0.0 mm CLR
21:30 30.3 °C 15.9 °C 1008.7 hPa NNE 10.3 km/h 14.8 km/h 42% 0.0 mm CLR
21:35 30.3 °C 15.9 °C 1008.9 hPa NE 11.3 km/h 14.5 km/h 42% 0.0 mm CLR
21:40 30.3 °C 15.9 °C 1008.9 hPa NE 9.5 km/h 13.0 km/h 42% 0.0 mm CLR
21:45 30.2 °C 15.9 °C 1008.9 hPa NNE 9.5 km/h 18.5 km/h 42% 0.0 mm CLR
21:50 30.1 °C 15.4 °C 1009.0 hPa NE 10.0 km/h 18.5 km/h 41% 0.0 mm CLR
21:55 30.1 °C 15.4 °C 1009.0 hPa NE 10.0 km/h 14.8 km/h 41% 0.0 mm CLR
22:00 29.9 °C 15.2 °C 1009.0 hPa NE 10.3 km/h 18.5 km/h 41% 0.0 mm CLR
22:05 29.9 °C 15.2 °C 1009.4 hPa NNE 10.3 km/h 14.8 km/h 41% 0.0 mm CLR
22:10 29.9 °C 15.2 °C 1009.4 hPa ENE 11.1 km/h 14.8 km/h 41% 0.0 mm CLR
22:15 29.8 °C 15.1 °C 1009.4 hPa NE 11.1 km/h 14.8 km/h 41% 0.0 mm CLR
22:20 29.7 °C 15.1 °C 1009.8 hPa NE 10.0 km/h 13.0 km/h 41% 0.0 mm CLR
22:25 29.7 °C 15.1 °C 1009.8 hPa North 10.0 km/h 11.9 km/h 41% 0.0 mm CLR
22:30 29.6 °C 15.3 °C 1009.8 hPa NNE 9.5 km/h 14.8 km/h 42% 0.0 mm CLR
22:35 29.4 °C 14.8 °C 1009.9 hPa NNE 9.5 km/h 14.8 km/h 41% 0.0 mm CLR
22:40 29.3 °C 15.1 °C 1009.9 hPa NE 8.7 km/h 13.0 km/h 42% 0.0 mm CLR
22:45 29.2 °C 14.9 °C 1009.9 hPa ENE 8.7 km/h 11.1 km/h 42% 0.0 mm CLR
22:50 29.2 °C 14.9 °C 1010.3 hPa NE 7.6 km/h 11.1 km/h 42% 0.0 mm CLR
22:55 29.1 °C 14.9 °C 1010.3 hPa NE 7.6 km/h 13.0 km/h 42% 0.0 mm CLR
23:00 29.0 °C 15.2 °C 1010.3 hPa NE 10.0 km/h 14.8 km/h 43% 0.0 mm CLR
23:05 29.1 °C 15.6 °C 1010.3 hPa NE 10.0 km/h 13.0 km/h 44% 0.0 mm CLR
23:10 29.1 °C 16.6 °C 1010.3 hPa NE 10.0 km/h 14.8 km/h 47% 0.0 mm CLR
23:15 29.0 °C 17.2 °C 1010.3 hPa NE 10.0 km/h 13.7 km/h 49% 0.0 mm CLR
23:20 28.9 °C 17.7 °C 1010.4 hPa East 8.4 km/h 13.0 km/h 51% 0.0 mm CLR
23:25 28.8 °C 17.3 °C 1010.4 hPa North 8.4 km/h 3.9 km/h 50% 0.0 mm CLR
23:30 28.7 °C 16.9 °C 1010.4 hPa NW 4.7 km/h 7.4 km/h 49% 0.0 mm CLR
23:35 28.6 °C 17.2 °C 1010.4 hPa NE 4.7 km/h 5.6 km/h 50% 0.0 mm CLR
23:40 28.4 °C 17.3 °C 1010.4 hPa NE 2.9 km/h 8.4 km/h 51% 0.0 mm CLR
23:45 28.4 °C 17.6 °C 1010.4 hPa NE 2.9 km/h 5.6 km/h 52% 0.0 mm CLR
23:50 28.3 °C 17.2 °C 1010.5 hPa NNW 3.2 km/h 7.4 km/h 51% 0.0 mm CLR
23:55 28.3 °C 17.2 °C 1010.5 hPa NNW 3.2 km/h 7.4 km/h 51% 0.0 mm CLR
Murcia-Puente Tocinos, España
Compliments of Weather Underground - 3.5 mb

La estación de MeteoMurcia.com, publica sus datos en los siguientes proyectos:

Weather Underground PWS IMURCIAP2 Meteoclimatic www.awekas.at

W3Counter
Web Analytics